createdAt,value
2019-04-29T00:01:20.818Z,102494.09
2019-04-29T00:03:48.623Z,102488.36
2019-04-29T00:06:15.889Z,102498.03
2019-04-29T00:08:43.470Z,102494.52
2019-04-29T00:11:11.066Z,102494.43
2019-04-29T00:13:38.434Z,102490.78
2019-04-29T00:16:25.632Z,102493.70
2019-04-29T00:19:23.837Z,102498.47
2019-04-29T00:21:51.197Z,102493.40
2019-04-29T00:24:18.431Z,102496.12
2019-04-29T00:26:45.928Z,102491.47
2019-04-29T00:29:13.181Z,102491.47
2019-04-29T00:31:40.466Z,102505.81
2019-04-29T00:34:07.736Z,102508.31
2019-04-29T00:36:42.109Z,102506.58
2019-04-29T00:39:40.875Z,102505.39
2019-04-29T00:42:18.360Z,102507.19
2019-04-29T00:44:45.742Z,102505.39
2019-04-29T00:47:13.195Z,102514.16
2019-04-29T00:49:40.453Z,102513.26
2019-04-29T00:52:07.936Z,102510.23
2019-04-29T00:54:44.010Z,102514.45
2019-04-29T00:57:11.306Z,102514.37
2019-04-29T00:59:38.591Z,102515.07
2019-04-29T01:02:06.975Z,102517.98
2019-04-29T01:04:34.352Z,102517.98
2019-04-29T01:07:01.638Z,102521.92
2019-04-29T01:09:30.223Z,102518.27
2019-04-29T01:11:57.462Z,102526.96
2019-04-29T01:14:24.725Z,102532.99
2019-04-29T01:16:51.968Z,102529.96
2019-04-29T01:19:19.209Z,102528.73
2019-04-29T01:21:46.495Z,102536.48
2019-04-29T01:24:13.727Z,102532.44
2019-04-29T01:26:59.748Z,102533.95
2019-04-29T01:29:27.673Z,102532.76
2019-04-29T01:31:54.937Z,102531.53
2019-04-29T01:34:27.293Z,102531.41
2019-04-29T01:36:54.505Z,102525.89
2019-04-29T01:39:24.972Z,102528.50
2019-04-29T01:42:23.753Z,102538.98
2019-04-29T01:44:51.017Z,102529.73
2019-04-29T01:47:18.332Z,102533.27
2019-04-29T01:49:45.541Z,102536.91
2019-04-29T01:52:12.771Z,102541.80
2019-04-29T01:54:40.065Z,102541.72
2019-04-29T01:57:07.405Z,102539.92
2019-04-29T01:59:34.730Z,102539.64
2019-04-29T02:02:02.143Z,102538.83
2019-04-29T02:04:29.389Z,102539.35
2019-04-29T02:06:56.726Z,102530.67
2019-04-29T02:09:32.330Z,102534.73
2019-04-29T02:11:59.740Z,102535.63
2019-04-29T02:14:26.963Z,102547.02
2019-04-29T02:16:54.254Z,102537.34
2019-04-29T02:19:21.498Z,102537.23
2019-04-29T02:22:06.718Z,102540.25
2019-04-29T02:24:36.130Z,102538.41
2019-04-29T02:27:05.740Z,102535.18
2019-04-29T02:29:32.525Z,102549.72
2019-04-29T02:31:59.759Z,102550.91
2019-04-29T02:34:27.014Z,102552.13
2019-04-29T02:36:54.244Z,102558.27
2019-04-29T02:39:45.057Z,102551.31
2019-04-29T02:42:30.218Z,102554.05
2019-04-29T02:45:01.593Z,102546.59
2019-04-29T02:47:28.813Z,102543.45
2019-04-29T02:49:56.099Z,102548.28
2019-04-29T02:52:23.327Z,102543.86
2019-04-29T02:54:52.551Z,102548.77
2019-04-29T02:57:34.161Z,102553.39
2019-04-29T03:00:13.475Z,102550.89
2019-04-29T03:02:49.284Z,102551.30
2019-04-29T03:05:19.998Z,102550.89
2019-04-29T03:07:47.329Z,102555.23
2019-04-29T03:10:14.717Z,102548.96
2019-04-29T03:12:41.960Z,102549.73
2019-04-29T03:15:09.293Z,102548.75
2019-04-29T03:17:36.900Z,102543.88
2019-04-29T03:20:25.210Z,102547.94
2019-04-29T03:23:06.492Z,102543.11
2019-04-29T03:25:33.891Z,102541.10
2019-04-29T03:28:01.098Z,102542.41
2019-04-29T03:30:28.347Z,102537.58
2019-04-29T03:32:55.578Z,102542.41
2019-04-29T03:35:22.810Z,102544.41
2019-04-29T03:37:50.370Z,102548.22
2019-04-29T03:40:17.617Z,102542.08
2019-04-29T03:42:44.840Z,102542.48
2019-04-29T03:45:12.223Z,102535.03
2019-04-29T03:47:39.511Z,102538.96
2019-04-29T03:50:06.913Z,102543.39
2019-04-29T03:52:34.225Z,102542.15
2019-04-29T03:55:01.588Z,102547.17
2019-04-29T03:57:31.043Z,102550.58
2019-04-29T03:59:58.293Z,102547.17
2019-04-29T04:02:35.359Z,102556.34
2019-04-29T04:05:21.027Z,102551.39
2019-04-29T04:07:52.319Z,102557.66
2019-04-29T04:10:19.548Z,102561.38
2019-04-29T04:12:46.838Z,102560.56
2019-04-29T04:15:14.103Z,102560.56
2019-04-29T04:18:01.906Z,102560.16
2019-04-29T04:20:29.131Z,102562.00
2019-04-29T04:22:56.359Z,102562.49
2019-04-29T04:25:23.662Z,102568.23
2019-04-29T04:27:50.873Z,102567.33
2019-04-29T04:30:18.587Z,102569.16
2019-04-29T04:32:45.939Z,102577.39
2019-04-29T04:35:13.249Z,102574.28
2019-04-29T04:37:40.626Z,102571.25
2019-04-29T04:40:13.114Z,102568.64
2019-04-29T04:42:40.372Z,102573.09
2019-04-29T04:45:07.912Z,102579.23
2019-04-29T04:47:35.203Z,102583.79
2019-04-29T04:50:02.931Z,102586.63
2019-04-29T04:52:30.153Z,102584.28
2019-04-29T04:54:57.421Z,102584.27
2019-04-29T04:57:24.722Z,102589.42
2019-04-29T04:59:51.971Z,102588.23
2019-04-29T05:02:20.130Z,102590.90
2019-04-29T05:04:47.383Z,102586.09
2019-04-29T05:07:14.656Z,102584.79
2019-04-29T05:09:41.894Z,102585.20
2019-04-29T05:12:09.583Z,102594.66
2019-04-29T05:14:36.889Z,102594.09
2019-04-29T05:17:04.207Z,102603.92
2019-04-29T05:19:31.634Z,102602.31
2019-04-29T05:21:58.881Z,102605.05
2019-04-29T05:24:26.119Z,102608.81
2019-04-29T05:26:53.351Z,102609.64
2019-04-29T05:29:20.645Z,102609.64
2019-04-29T05:31:47.885Z,102608.25
2019-04-29T05:34:15.455Z,102610.06
2019-04-29T05:37:11.271Z,102621.57
2019-04-29T05:39:40.103Z,102622.34
2019-04-29T05:42:15.677Z,102622.34
2019-04-29T05:44:48.462Z,102624.85
2019-04-29T05:47:19.260Z,102613.13
2019-04-29T05:50:06.648Z,102620.41
2019-04-29T05:52:41.280Z,102624.42
2019-04-29T05:55:09.515Z,102623.17
2019-04-29T05:57:38.000Z,102624.97
2019-04-29T06:00:05.544Z,102624.97
2019-04-29T06:02:35.108Z,102626.68
2019-04-29T06:05:02.815Z,102623.92
2019-04-29T06:07:30.044Z,102626.03
2019-04-29T06:09:57.396Z,102623.81
2019-04-29T06:12:31.201Z,102632.12
2019-04-29T06:14:58.430Z,102625.91
2019-04-29T06:17:25.683Z,102627.75
2019-04-29T06:19:52.923Z,102632.36
2019-04-29T06:22:20.147Z,102632.36
2019-04-29T06:24:47.426Z,102623.88
2019-04-29T06:27:14.757Z,102631.17
2019-04-29T06:29:42.360Z,102628.75
2019-04-29T06:32:09.600Z,102627.80
2019-04-29T06:34:40.190Z,102633.25
2019-04-29T06:37:06.642Z,102632.94
2019-04-29T06:39:34.316Z,102638.84
2019-04-29T06:42:01.629Z,102641.05
2019-04-29T06:44:28.857Z,102641.05
2019-04-29T06:46:56.365Z,102654.01
2019-04-29T06:49:23.699Z,102654.01
2019-04-29T06:51:51.004Z,102662.57
2019-04-29T06:54:18.307Z,102662.57
2019-04-29T06:56:45.557Z,102661.91
2019-04-29T06:59:14.017Z,102659.14
2019-04-29T07:01:41.325Z,102659.58
2019-04-29T07:04:09.680Z,102654.23
2019-04-29T07:06:36.980Z,102651.64
2019-04-29T07:09:05.789Z,102657.70
2019-04-29T07:11:36.637Z,102662.65
2019-04-29T07:14:02.137Z,102662.84
2019-04-29T07:16:31.918Z,102663.05
2019-04-29T07:18:58.792Z,102668.04
2019-04-29T07:21:25.994Z,102668.04
2019-04-29T07:23:53.252Z,102667.91
2019-04-29T07:26:20.487Z,102662.05
2019-04-29T07:28:48.760Z,102657.60
2019-04-29T07:31:21.806Z,102664.64
2019-04-29T07:49:22.521Z,102661.11
2019-04-29T07:51:54.456Z,102661.11
2019-04-29T07:54:21.638Z,102663.48
2019-04-29T07:56:48.585Z,102670.21
2019-04-29T07:59:15.552Z,102669.48
2019-04-29T08:01:42.538Z,102674.24
2019-04-29T08:04:09.521Z,102674.24
2019-04-29T08:06:38.335Z,102667.87
2019-04-29T08:09:07.963Z,102677.25
2019-04-29T08:11:36.159Z,102687.98
2019-04-29T08:14:03.267Z,102690.06
2019-04-29T08:16:30.231Z,102685.52
2019-04-29T08:18:57.240Z,102701.64
2019-04-29T08:21:24.187Z,102697.66
2019-04-29T08:23:51.137Z,102703.08
2019-04-29T08:26:18.151Z,102697.59
2019-04-29T08:28:45.112Z,102692.99
2019-04-29T08:31:12.078Z,102685.20
2019-04-29T08:33:42.461Z,102685.62
2019-04-29T08:36:07.950Z,102678.30
2019-04-29T08:38:34.906Z,102686.21
2019-04-29T08:41:01.904Z,102693.28
2019-04-29T08:43:48.497Z,102690.53
2019-04-29T08:46:19.178Z,102690.82
2019-04-29T08:48:46.185Z,102688.77
2019-04-29T08:51:13.155Z,102687.45
2019-04-29T08:53:40.171Z,102680.55
2019-04-29T08:56:10.253Z,102678.06
2019-04-29T08:58:39.174Z,102687.77
2019-04-29T09:01:04.929Z,102687.01
2019-04-29T09:03:40.200Z,102687.01
2019-04-29T09:06:05.560Z,102681.39
2019-04-29T09:08:32.829Z,102691.73
2019-04-29T09:10:58.528Z,102691.73
2019-04-29T09:13:25.510Z,102691.06
2019-04-29T09:15:52.599Z,102717.67
2019-04-29T09:18:19.564Z,102694.95
2019-04-29T09:20:46.528Z,102698.41
2019-04-29T09:23:16.570Z,102694.56
2019-04-29T09:26:05.827Z,102697.93
2019-04-29T09:28:32.819Z,102706.40
2019-04-29T09:30:59.823Z,102704.34
2019-04-29T09:33:26.775Z,102697.42
2019-04-29T09:35:53.796Z,102703.40
2019-04-29T09:38:20.744Z,102705.20
2019-04-29T09:40:59.633Z,102698.92
2019-04-29T09:43:44.983Z,102693.84
2019-04-29T09:46:18.548Z,102702.42
2019-04-29T09:48:45.068Z,102704.92
2019-04-29T09:51:17.771Z,102706.82
2019-04-29T09:53:40.996Z,102703.03
2019-04-29T09:56:07.950Z,102701.13
2019-04-29T09:58:34.941Z,102701.77
2019-04-29T10:01:18.277Z,102701.77
2019-04-29T10:04:06.708Z,102701.16
2019-04-29T10:06:35.550Z,102712.88
2019-04-29T10:09:04.941Z,102707.11
2019-04-29T10:11:31.960Z,102714.17
2019-04-29T10:13:58.950Z,102707.18
2019-04-29T10:16:54.365Z,102701.95
2019-04-29T10:19:41.714Z,102699.71
2019-04-29T10:22:08.703Z,102698.98
2019-04-29T10:24:35.824Z,102699.30
2019-04-29T10:27:02.980Z,102701.98
2019-04-29T10:29:31.760Z,102703.08
2019-04-29T10:32:02.545Z,102701.91
2019-04-29T10:34:31.578Z,102704.55
2019-04-29T10:36:56.695Z,102696.73
2019-04-29T10:39:42.449Z,102696.73
2019-04-29T10:42:10.125Z,102701.61
2019-04-29T10:44:55.251Z,102700.61
2019-04-29T10:47:37.145Z,102694.41
2019-04-29T10:50:15.377Z,102691.97
2019-04-29T10:52:43.501Z,102666.59
2019-04-29T10:55:11.049Z,102686.59
2019-04-29T10:57:38.260Z,102692.66
2019-04-29T11:00:23.514Z,102692.66
2019-04-29T11:02:51.156Z,102696.28
2019-04-29T11:05:31.725Z,102681.20
2019-04-29T11:08:17.444Z,102675.36
2019-04-29T11:10:44.487Z,102674.46
2019-04-29T11:13:11.814Z,102687.98
2019-04-29T11:15:38.795Z,102680.59
2019-04-29T11:18:05.931Z,102683.87
2019-04-29T11:20:34.194Z,102682.35
2019-04-29T11:23:19.857Z,102672.47
2019-04-29T11:26:15.535Z,102666.61
2019-04-29T11:28:46.843Z,102662.56
2019-04-29T11:31:14.456Z,102661.06
2019-04-29T11:34:00.131Z,102663.50
2019-04-29T11:36:27.494Z,102658.86
2019-04-29T11:38:54.634Z,102658.22
2019-04-29T11:41:21.627Z,102663.98
2019-04-29T11:43:51.003Z,102662.50
2019-04-29T11:46:20.796Z,102654.27
2019-04-29T11:48:46.487Z,102659.86
2019-04-29T11:51:28.750Z,102652.30
2019-04-29T11:53:55.711Z,102655.83
2019-04-29T11:56:22.821Z,102660.19
2019-04-29T11:59:02.806Z,102651.05
2019-04-29T12:01:59.766Z,102651.05
2019-04-29T12:04:42.145Z,102656.57
2019-04-29T12:07:08.834Z,102661.18
2019-04-29T12:09:36.014Z,102650.94
2019-04-29T12:12:03.031Z,102658.55
2019-04-29T12:15:01.893Z,102655.32
2019-04-29T12:17:41.928Z,102655.32
2019-04-29T12:20:17.218Z,102653.78
2019-04-29T12:22:48.537Z,102648.83
2019-04-29T12:25:13.073Z,102651.69
2019-04-29T12:27:40.058Z,102648.45
2019-04-29T12:30:09.052Z,102650.78
2019-04-29T12:32:49.510Z,102651.75
2019-04-29T12:35:25.282Z,102642.41
2019-04-29T12:38:18.968Z,102642.92
2019-04-29T12:40:59.282Z,102652.52
2019-04-29T12:43:35.468Z,102649.69
2019-04-29T12:46:15.870Z,102642.25
2019-04-29T12:48:42.910Z,102648.04
2019-04-29T12:51:10.025Z,102640.23
2019-04-29T12:56:31.482Z,102640.85
2019-04-29T12:58:59.697Z,102642.43
2019-04-29T13:01:51.041Z,102646.95
2019-04-29T13:04:34.580Z,102648.80
2019-04-29T13:07:24.056Z,102645.08
2019-04-29T13:09:52.967Z,102647.05
2019-04-29T13:12:20.200Z,102647.05
2019-04-29T13:15:03.066Z,102640.27
2019-04-29T13:17:32.179Z,102639.30
2019-04-29T13:20:07.427Z,102637.25
2019-04-29T13:22:31.719Z,102641.38
2019-04-29T13:24:58.663Z,102639.91
2019-04-29T13:27:26.670Z,102625.70
2019-04-29T13:29:53.743Z,102630.09
2019-04-29T13:32:20.798Z,102626.70
2019-04-29T13:34:49.103Z,102632.05
2019-04-29T13:37:19.767Z,102632.05
2019-04-29T13:39:45.119Z,102620.68
2019-04-29T13:42:15.607Z,102624.70
2019-04-29T13:44:42.714Z,102617.75
2019-04-29T13:47:34.432Z,102617.70
2019-04-29T13:50:38.232Z,102605.02
2019-04-29T13:52:49.887Z,102609.64
2019-04-29T13:55:20.422Z,102609.64
2019-04-29T13:57:49.557Z,102599.17
2019-04-29T14:00:36.526Z,102614.25
2019-04-29T14:03:11.634Z,102614.48
2019-04-29T14:05:37.890Z,102608.25
2019-04-29T14:08:05.682Z,102606.94
2019-04-29T14:10:32.740Z,102607.45
2019-04-29T14:13:09.812Z,102602.53
2019-04-29T14:15:29.656Z,102601.01
2019-04-29T14:17:57.528Z,102600.98
2019-04-29T14:20:24.514Z,102595.22
2019-04-29T14:22:51.539Z,102591.59
2019-04-29T14:25:18.525Z,102596.64
2019-04-29T14:27:45.477Z,102589.20
2019-04-29T14:30:20.640Z,102587.89
2019-04-29T14:32:49.717Z,102585.89
2019-04-29T14:35:39.510Z,102585.84
2019-04-29T14:38:06.553Z,102576.97
2019-04-29T14:40:33.791Z,102581.51
2019-04-29T14:43:31.357Z,102570.33
2019-04-29T14:46:01.129Z,102573.45
2019-04-29T14:48:42.211Z,102577.88
2019-04-29T14:51:01.683Z,102581.92
2019-04-29T14:53:28.742Z,102579.98
2019-04-29T14:55:55.784Z,102573.17
2019-04-29T14:58:22.868Z,102565.72
2019-04-29T15:01:18.659Z,102565.72
2019-04-29T15:04:00.005Z,102572.36
2019-04-29T15:06:29.000Z,102571.53
2019-04-29T15:08:55.978Z,102572.75
2019-04-29T15:11:32.153Z,102575.22
2019-04-29T15:14:01.437Z,102579.34
2019-04-29T15:16:43.615Z,102575.60
2019-04-29T15:19:28.927Z,102586.31
2019-04-29T15:21:59.959Z,102579.89
2019-04-29T15:24:32.069Z,102544.33
2019-04-29T15:26:56.462Z,102582.47
2019-04-29T15:29:23.609Z,102584.00
2019-04-29T15:31:50.640Z,102582.13
2019-04-29T15:34:17.814Z,102586.64
2019-04-29T15:36:44.998Z,102585.99
2019-04-29T15:39:12.559Z,102585.99
2019-04-29T15:41:40.485Z,102590.98
2019-04-29T15:44:09.042Z,102580.89
2019-04-29T15:46:46.204Z,102579.25
2019-04-29T15:49:05.530Z,102572.83
2019-04-29T15:51:32.601Z,102583.58
2019-04-29T15:53:59.617Z,102580.47
2019-04-29T15:56:29.321Z,102567.45
2019-04-29T15:58:58.996Z,102573.19
2019-04-29T16:01:27.885Z,102566.72
2019-04-29T16:03:57.008Z,102566.72
2019-04-29T16:06:49.730Z,102558.77
2019-04-29T16:09:50.580Z,102558.77
2019-04-29T16:12:24.960Z,102562.55
2019-04-29T16:14:51.976Z,102564.31
2019-04-29T16:17:20.605Z,102560.70
2019-04-29T16:19:47.981Z,102560.70
2019-04-29T16:22:19.816Z,102562.34
2019-04-29T16:24:43.957Z,102568.27
2019-04-29T16:27:11.016Z,102565.95
2019-04-29T16:29:38.017Z,102567.16
2019-04-29T16:32:08.405Z,102567.59
2019-04-29T16:34:37.396Z,102561.41
2019-04-29T16:37:04.845Z,102565.70
2019-04-29T16:39:32.015Z,102565.33
2019-04-29T16:42:21.370Z,102565.06
2019-04-29T16:44:48.408Z,102567.77
2019-04-29T16:47:16.263Z,102567.77
2019-04-29T16:49:43.311Z,102565.66
2019-04-29T16:52:10.361Z,102570.18
2019-04-29T16:54:37.444Z,102560.23
2019-04-29T16:57:04.717Z,102560.23
2019-04-29T16:59:31.781Z,102559.52
2019-04-29T17:01:58.857Z,102563.82
2019-04-29T17:04:26.060Z,102565.20
2019-04-29T17:07:11.863Z,102566.21
2019-04-29T17:09:47.487Z,102562.50
2019-04-29T17:12:14.533Z,102560.28
2019-04-29T17:15:02.164Z,102549.55
2019-04-29T17:17:15.284Z,102560.67
2019-04-29T17:19:42.366Z,102562.34
2019-04-29T17:22:24.859Z,102561.48
2019-04-29T17:24:39.409Z,102556.20
2019-04-29T17:27:42.090Z,102560.59
2019-04-29T17:30:38.278Z,102558.09
2019-04-29T17:33:31.282Z,102552.81
2019-04-29T17:35:58.982Z,102552.81
2019-04-29T17:38:26.005Z,102559.36
2019-04-29T17:40:53.023Z,102553.43
2019-04-29T17:43:32.875Z,102551.75
2019-04-29T17:46:28.695Z,102546.69
2019-04-29T17:49:03.269Z,102548.75
2019-04-29T17:51:31.702Z,102558.75
2019-04-29T17:54:00.695Z,102578.90
2019-04-29T17:56:35.102Z,102544.43
2019-04-29T17:59:15.809Z,102562.48
2019-04-29T18:01:58.622Z,102560.33
2019-04-29T18:04:38.875Z,102564.48
2019-04-29T18:07:25.477Z,102557.31
2019-04-29T18:09:59.910Z,102564.41
2019-04-29T18:12:26.951Z,102558.84
2019-04-29T18:14:55.097Z,102562.08
2019-04-29T18:17:30.372Z,102563.82
2019-04-29T18:20:17.152Z,102560.48
2019-04-29T18:23:00.991Z,102564.53
2019-04-29T18:25:41.317Z,102556.02
2019-04-29T18:28:08.590Z,102556.02
2019-04-29T18:30:38.300Z,102561.60
2019-04-29T18:33:05.360Z,102565.86
2019-04-29T18:35:32.589Z,102564.50
2019-04-29T18:37:59.650Z,102556.60
2019-04-29T18:40:26.674Z,102556.47
2019-04-29T18:42:55.395Z,102551.95
2019-04-29T18:45:25.403Z,102565.99
2019-04-29T18:47:51.567Z,102567.56
2019-04-29T18:50:19.066Z,102563.75
2019-04-29T18:52:46.101Z,102565.55
2019-04-29T18:55:13.157Z,102566.64
2019-04-29T18:57:40.289Z,102572.70
2019-04-29T19:00:12.716Z,102579.22
2019-04-29T19:02:45.354Z,102561.30
2019-04-29T19:05:18.866Z,102561.30
2019-04-29T19:07:55.010Z,102576.25
2019-04-29T19:10:18.380Z,102580.68
2019-04-29T19:12:45.993Z,102586.26
2019-04-29T19:15:15.081Z,102581.34
2019-04-29T19:17:42.462Z,102573.41
2019-04-29T19:20:12.899Z,102580.48
2019-04-29T19:22:44.151Z,102575.77
2019-04-29T19:25:11.759Z,102579.94
2019-04-29T19:27:40.076Z,102588.00
2019-04-29T19:30:08.407Z,102588.94
2019-04-29T19:32:36.657Z,102596.02
2019-04-29T19:35:04.346Z,102595.05
2019-04-29T19:37:32.404Z,102594.03
2019-04-29T19:40:00.319Z,102594.03
2019-04-29T19:42:29.664Z,102599.59
2019-04-29T19:44:56.337Z,102599.59
2019-04-29T19:47:23.348Z,102600.86
2019-04-29T19:49:50.419Z,102594.94
2019-04-29T19:52:27.867Z,102607.08
2019-04-29T19:54:46.373Z,102608.50
2019-04-29T19:57:14.951Z,102608.50
2019-04-29T19:59:50.272Z,102600.80
2019-04-29T20:02:11.746Z,102616.17
2019-04-29T20:04:59.702Z,102616.52
2019-04-29T20:07:28.267Z,102613.64
2019-04-29T20:10:04.015Z,102621.54
2019-04-29T20:12:25.627Z,102621.54
2019-04-29T20:14:58.790Z,102605.63
2019-04-29T20:17:47.882Z,102605.63
2019-04-29T20:20:48.253Z,102619.58
2019-04-29T20:23:20.174Z,102616.17
2019-04-29T20:25:48.063Z,102605.83
2019-04-29T20:28:18.418Z,102607.13
2019-04-29T20:30:42.408Z,102604.94
2019-04-29T20:33:12.587Z,102604.80
2019-04-29T20:35:40.500Z,102606.53
2019-04-29T20:38:07.510Z,102599.37
2019-04-29T20:40:36.273Z,102599.37
2019-04-29T20:43:05.750Z,102599.91
2019-04-29T20:45:32.819Z,102595.06
2019-04-29T20:47:59.993Z,102604.80
2019-04-29T20:50:27.304Z,102599.91
2019-04-29T20:53:05.089Z,102599.91
2019-04-29T20:55:36.349Z,102597.59
2019-04-29T20:58:03.509Z,102601.23
2019-04-29T21:00:31.824Z,102602.08
2019-04-29T21:02:59.084Z,102596.91
2019-04-29T21:05:27.649Z,102599.13
2019-04-29T21:08:03.013Z,102594.88
2019-04-29T21:10:25.420Z,102594.88
2019-04-29T21:13:20.287Z,102592.27
2019-04-29T21:15:59.512Z,102597.45
2019-04-29T21:18:27.105Z,102599.91
2019-04-29T21:20:55.141Z,102592.75
2019-04-29T21:23:23.736Z,102603.50
2019-04-29T21:25:51.020Z,102600.75
2019-04-29T21:28:18.012Z,102600.98
2019-04-29T21:30:45.254Z,102605.34
2019-04-29T21:33:17.846Z,102600.10
2019-04-29T21:35:49.634Z,102600.10
2019-04-29T21:38:39.261Z,102599.67
2019-04-29T21:41:09.934Z,102594.70
2019-04-29T21:43:38.731Z,102587.62
2019-04-29T21:46:05.847Z,102587.62
2019-04-29T21:48:35.023Z,102604.16
2019-04-29T21:51:01.841Z,102600.64
2019-04-29T21:53:31.575Z,102603.73
2019-04-29T21:55:59.679Z,102603.73
2019-04-29T21:58:28.616Z,102601.16
2019-04-29T22:00:59.104Z,102599.14
2019-04-29T22:03:27.770Z,102599.02
2019-04-29T22:05:55.580Z,102596.33
2019-04-29T22:08:27.554Z,102595.45
2019-04-29T22:10:52.155Z,102595.82
2019-04-29T22:13:19.281Z,102600.59
2019-04-29T22:15:46.286Z,102600.06
2019-04-29T22:18:15.569Z,102595.44
2019-04-29T22:20:43.411Z,102604.34
2019-04-29T22:23:13.100Z,102594.80
2019-04-29T22:25:41.014Z,102593.52
2019-04-29T22:28:10.679Z,102594.73
2019-04-29T22:30:37.401Z,102589.95
2019-04-29T22:33:05.215Z,102589.23
2019-04-29T22:35:36.372Z,102593.71
2019-04-29T22:38:01.405Z,102594.09
2019-04-29T22:40:28.444Z,102592.50
2019-04-29T22:43:16.889Z,102591.69
2019-04-29T22:45:43.865Z,102588.94
2019-04-29T22:48:16.951Z,102591.20
2019-04-29T22:50:39.790Z,102594.01
2019-04-29T22:53:08.884Z,102587.13
2019-04-29T22:55:38.775Z,102594.64
2019-04-29T22:58:07.875Z,102584.86
2019-04-29T23:00:33.972Z,102585.41
2019-04-29T23:03:02.244Z,102592.47
2019-04-29T23:05:29.960Z,102588.80
2019-04-29T23:08:00.048Z,102582.39
2019-04-29T23:10:27.866Z,102584.61
2019-04-29T23:12:57.456Z,102583.61
2019-04-29T23:15:25.957Z,102581.28
2019-04-29T23:17:52.975Z,102581.28
2019-04-29T23:20:48.539Z,102575.10
2019-04-29T23:23:21.166Z,102585.53
2019-04-29T23:25:50.481Z,102577.63
2019-04-29T23:28:17.683Z,102581.95
2019-04-29T23:30:47.870Z,102575.77
2019-04-29T23:33:15.067Z,102575.30
2019-04-29T23:35:44.790Z,102577.04
2019-04-29T23:38:12.085Z,102583.20
2019-04-29T23:40:39.296Z,102584.51
2019-04-29T23:43:06.454Z,102583.80
2019-04-29T23:45:35.105Z,102580.38
2019-04-29T23:48:02.494Z,102577.76
2019-04-29T23:50:29.654Z,102577.20
2019-04-29T23:52:56.816Z,102574.23
2019-04-29T23:55:27.353Z,102570.62
2019-04-29T23:58:06.187Z,102572.02
